createdAt,value
2022-08-11T00:02:18.245Z,100294.81
2022-08-11T00:04:54.987Z,100295.94
2022-08-11T00:07:45.850Z,100280.84
2022-08-11T00:10:24.954Z,100286.09
2022-08-11T00:13:07.896Z,100283.94
2022-08-11T00:15:57.847Z,100288.31
2022-08-11T00:18:51.495Z,100288.22
2022-08-11T00:22:02.901Z,100281.88
2022-08-11T00:24:25.917Z,100281.28
2022-08-11T00:27:00.870Z,100279.88
2022-08-11T00:29:51.608Z,100276.91
2022-08-11T00:32:37.664Z,100276.81
2022-08-11T00:35:52.469Z,100276.38
2022-08-11T00:38:33.324Z,100276.97
2022-08-11T00:41:10.342Z,100274.31
2022-08-11T00:44:21.684Z,100267.78
2022-08-11T00:47:35.675Z,100264.47
2022-08-11T00:50:19.837Z,100265.72
2022-08-11T00:53:19.372Z,100264.72
2022-08-11T00:56:18.616Z,100265.91
2022-08-11T00:59:35.371Z,100267.06
2022-08-11T01:02:30.711Z,100269.69
2022-08-11T01:05:40.954Z,100273.09
2022-08-11T01:09:03.487Z,100276.31
2022-08-11T01:12:17.926Z,100267.56
2022-08-11T01:15:22.159Z,100262.19
2022-08-11T01:18:20.040Z,100262.75
2022-08-11T01:21:23.691Z,100269.19
2022-08-11T01:24:30.361Z,100261.56
2022-08-11T01:27:28.585Z,100261.53
2022-08-11T01:30:40.660Z,100258.84
2022-08-11T01:33:46.493Z,100261.22
2022-08-11T01:36:57.319Z,100252.84
2022-08-11T01:39:49.656Z,100253.44
2022-08-11T01:43:14.849Z,100252.84
2022-08-11T01:45:58.820Z,100260.56
2022-08-11T01:50:06.424Z,100258.47
2022-08-11T01:52:33.642Z,100248.50
2022-08-11T01:55:32.887Z,100252.31
2022-08-11T01:58:39.482Z,100251.13
2022-08-11T02:01:40.884Z,100235.97
2022-08-11T02:04:19.859Z,100235.38
2022-08-11T02:07:15.453Z,100241.53
2022-08-11T02:09:58.017Z,100237.50
2022-08-11T02:13:02.945Z,100240.97
2022-08-11T02:16:06.488Z,100238.84
2022-08-11T02:19:14.523Z,100235.06
2022-08-11T02:22:21.324Z,100234.34
2022-08-11T02:25:20.434Z,100240.03
2022-08-11T02:28:23.966Z,100244.91
2022-08-11T02:32:23.930Z,100233.88
2022-08-11T02:35:09.161Z,100234.25
2022-08-11T02:38:06.425Z,100241.34
2022-08-11T02:41:01.604Z,100238.88
2022-08-11T02:44:05.763Z,100239.81
2022-08-11T02:47:17.093Z,100237.78
2022-08-11T02:50:32.837Z,100238.00
2022-08-11T02:53:12.870Z,100233.06
2022-08-11T02:56:00.846Z,100239.34
2022-08-11T02:59:16.245Z,100224.19
2022-08-11T03:02:04.585Z,100233.06
2022-08-11T03:04:52.925Z,100225.59
2022-08-11T03:08:22.379Z,100226.31
2022-08-11T03:11:28.206Z,100216.25
2022-08-11T03:14:35.407Z,100226.66
2022-08-11T03:17:40.113Z,100227.97
2022-08-11T03:20:24.954Z,100230.22
2022-08-11T03:23:40.876Z,100231.59
2022-08-11T03:26:42.738Z,100234.66
2022-08-11T03:29:33.946Z,100233.84
2022-08-11T03:32:31.563Z,100231.81
2022-08-11T03:35:08.808Z,100239.84
2022-08-11T03:38:14.440Z,100244.91
2022-08-11T03:42:01.418Z,100236.03
2022-08-11T03:45:15.086Z,100243.00
2022-08-11T03:48:14.013Z,100243.81
2022-08-11T03:51:44.819Z,100240.50
2022-08-11T03:55:08.583Z,100245.72
2022-08-11T03:58:07.596Z,100240.41
2022-08-11T04:00:55.987Z,100239.25
2022-08-11T04:04:00.733Z,100245.28
2022-08-11T04:07:10.859Z,100239.16
2022-08-11T04:10:22.994Z,100241.94
2022-08-11T04:13:44.860Z,100236.25
2022-08-11T04:16:28.790Z,100232.84
2022-08-11T04:19:29.634Z,100238.50
2022-08-11T04:22:27.549Z,100248.56
2022-08-11T04:25:28.742Z,100252.81
2022-08-11T04:28:29.147Z,100254.97
2022-08-11T04:31:50.634Z,100257.09
2022-08-11T04:34:55.893Z,100252.34
2022-08-11T04:38:09.018Z,100254.13
2022-08-11T04:41:01.479Z,100255.06
2022-08-11T04:44:25.019Z,100258.72
2022-08-11T04:48:04.451Z,100251.72
2022-08-11T04:51:39.454Z,100255.50
2022-08-11T04:54:58.454Z,100254.66
2022-08-11T04:58:10.160Z,100256.16
2022-08-11T05:01:37.268Z,100264.44
2022-08-11T05:04:41.133Z,100268.44
2022-08-11T05:07:49.454Z,100264.28
2022-08-11T05:10:52.976Z,100267.41
2022-08-11T05:14:10.651Z,100257.56
2022-08-11T05:17:12.375Z,100264.47
2022-08-11T05:20:08.418Z,100265.91
2022-08-11T05:23:06.385Z,100268.25
2022-08-11T05:26:43.778Z,100263.53
2022-08-11T05:29:21.801Z,100271.06
2022-08-11T05:32:35.690Z,100271.88
2022-08-11T05:35:08.874Z,100272.31
2022-08-11T05:38:16.651Z,100278.81
2022-08-11T05:41:13.256Z,100272.53
2022-08-11T05:44:20.216Z,100280.06
2022-08-11T05:47:16.679Z,100282.75
2022-08-11T05:50:15.301Z,100268.56
2022-08-11T05:53:09.307Z,100266.13
2022-08-11T05:56:08.040Z,100272.94
2022-08-11T05:58:44.774Z,100268.88
2022-08-11T06:01:34.276Z,100262.25
2022-08-11T06:04:19.871Z,100269.09
2022-08-11T06:07:10.568Z,100272.88
2022-08-11T06:09:56.075Z,100264.97
2022-08-11T06:12:43.573Z,100263.53
2022-08-11T06:15:27.590Z,100264.69
2022-08-11T06:18:08.760Z,100268.47
2022-08-11T06:21:00.538Z,100268.84
2022-08-11T06:23:43.869Z,100269.03
2022-08-11T06:26:22.717Z,100266.91
2022-08-11T06:29:11.134Z,100261.81
2022-08-11T06:31:47.632Z,100267.44
2022-08-11T06:34:27.665Z,100262.94
2022-08-11T06:37:24.429Z,100261.47
2022-08-11T06:40:27.406Z,100265.06
2022-08-11T06:43:27.439Z,100267.34
2022-08-11T06:46:12.898Z,100251.63
2022-08-11T06:49:06.882Z,100261.50
2022-08-11T06:52:04.406Z,100261.72
2022-08-11T06:54:49.370Z,100257.03
2022-08-11T06:57:56.641Z,100263.41
2022-08-11T07:00:37.316Z,100253.59
2022-08-11T07:03:15.820Z,100246.97
2022-08-11T07:06:09.401Z,100235.16
2022-08-11T07:09:35.697Z,100245.13
2022-08-11T07:12:38.768Z,100243.78
2022-08-11T07:16:10.892Z,100243.16
2022-08-11T07:19:02.922Z,100237.13
2022-08-11T07:22:03.741Z,100243.41
2022-08-11T07:25:26.537Z,100245.59
2022-08-11T07:28:30.288Z,100242.50
2022-08-11T07:31:42.807Z,100248.56
2022-08-11T07:34:34.522Z,100242.72
2022-08-11T07:37:17.992Z,100254.91
2022-08-11T07:39:54.168Z,100237.09
2022-08-11T07:42:41.621Z,100241.47
2022-08-11T07:45:34.357Z,100241.03
2022-08-11T07:48:33.503Z,100243.25
2022-08-11T07:51:25.450Z,100237.97
2022-08-11T07:54:17.087Z,100228.88
2022-08-11T07:56:55.116Z,100230.22
2022-08-11T08:00:10.500Z,100231.19
2022-08-11T08:03:08.804Z,100222.03
2022-08-11T08:06:00.147Z,100223.19
2022-08-11T08:08:55.800Z,100221.00
2022-08-11T08:11:46.821Z,100215.44
2022-08-11T08:14:42.867Z,100210.38
2022-08-11T08:17:37.492Z,100216.88
2022-08-11T08:20:10.273Z,100209.25
2022-08-11T08:22:57.143Z,100203.66
2022-08-11T08:25:39.017Z,100206.06
2022-08-11T08:28:21.882Z,100210.53
2022-08-11T08:30:52.957Z,100205.13
2022-08-11T08:33:40.891Z,100202.28
2022-08-11T08:36:18.692Z,100195.88
2022-08-11T08:39:00.781Z,100202.44
2022-08-11T08:41:50.908Z,100195.09
2022-08-11T08:44:38.358Z,100197.59
2022-08-11T08:47:42.913Z,100196.59
2022-08-11T08:50:47.581Z,100193.78
2022-08-11T08:53:52.497Z,100194.16
2022-08-11T08:56:38.659Z,100189.09
2022-08-11T08:59:16.489Z,100193.34
2022-08-11T09:02:13.082Z,100190.97
2022-08-11T09:04:52.333Z,100196.28
2022-08-11T09:07:26.594Z,100185.31
2022-08-11T09:10:08.251Z,100187.19
2022-08-11T09:12:44.076Z,100190.31
2022-08-11T09:15:27.303Z,100185.31
2022-08-11T09:18:09.377Z,100172.88
2022-08-11T09:20:47.017Z,100179.06
2022-08-11T09:24:06.800Z,100178.25
2022-08-11T09:27:03.033Z,100170.69
2022-08-11T09:29:39.100Z,100175.81
2022-08-11T09:32:15.461Z,100172.31
2022-08-11T09:34:45.888Z,100159.47
2022-08-11T09:37:55.542Z,100158.66
2022-08-11T09:40:41.935Z,100154.56
2022-08-11T09:43:39.461Z,100149.19
2022-08-11T09:46:18.123Z,100155.66
2022-08-11T09:49:02.241Z,100152.56
2022-08-11T09:51:42.726Z,100155.63
2022-08-11T09:54:48.202Z,100150.28
2022-08-11T09:57:44.080Z,100145.94
2022-08-11T10:00:24.677Z,100151.00
2022-08-11T10:03:01.639Z,100139.25
2022-08-11T10:05:57.377Z,100123.31
2022-08-11T10:08:30.988Z,100129.53
2022-08-11T10:11:09.445Z,100130.41
2022-08-11T10:14:30.986Z,100127.78
2022-08-11T10:17:08.053Z,100136.25
2022-08-11T10:20:02.019Z,100122.41
2022-08-11T10:22:59.692Z,100119.47
2022-08-11T10:25:50.378Z,100113.19
2022-08-11T10:28:55.607Z,100106.50
2022-08-11T10:31:57.426Z,100109.41
2022-08-11T10:34:31.797Z,100101.09
2022-08-11T10:37:15.108Z,100097.06
2022-08-11T10:39:55.592Z,100097.53
2022-08-11T10:42:57.680Z,100106.03
2022-08-11T10:45:48.480Z,100097.03
2022-08-11T10:48:30.558Z,100098.31
2022-08-11T10:51:49.962Z,100100.13
2022-08-11T10:54:40.007Z,100096.88
2022-08-11T10:57:31.564Z,100096.03
2022-08-11T11:00:06.929Z,100090.53
2022-08-11T11:02:41.931Z,100090.88
2022-08-11T11:05:25.319Z,100085.94
2022-08-11T11:08:27.006Z,100083.66
2022-08-11T11:11:05.065Z,100078.22
2022-08-11T11:13:53.180Z,100072.91
2022-08-11T11:16:49.090Z,100066.06
2022-08-11T11:19:36.608Z,100066.72
2022-08-11T11:22:29.776Z,100064.16
2022-08-11T11:25:23.488Z,100060.75
2022-08-11T11:28:18.963Z,100052.47
2022-08-11T11:30:57.697Z,100052.31
2022-08-11T11:34:06.051Z,100057.50
2022-08-11T11:37:04.274Z,100044.84
2022-08-11T11:39:34.283Z,100041.59
2022-08-11T11:42:10.662Z,100042.66
2022-08-11T11:44:49.475Z,100035.75
2022-08-11T11:47:22.684Z,100033.16
2022-08-11T11:50:03.284Z,100027.44
2022-08-11T11:52:44.202Z,100026.56
2022-08-11T11:55:19.993Z,100030.53
2022-08-11T11:58:08.615Z,100042.94
2022-08-11T12:01:08.103Z,100035.63
2022-08-11T12:03:44.944Z,100038.53
2022-08-11T12:06:25.212Z,100038.41
2022-08-11T12:09:04.471Z,100026.09
2022-08-11T12:11:57.691Z,100027.97
2022-08-11T12:14:32.948Z,100031.56
2022-08-11T12:17:05.808Z,100025.84
2022-08-11T12:19:48.634Z,100019.28
2022-08-11T12:22:39.514Z,100013.88
2022-08-11T12:25:30.651Z,100012.41
2022-08-11T12:28:10.616Z,100014.41
2022-08-11T12:30:44.090Z,100015.59
2022-08-11T12:33:24.270Z,100000.13
2022-08-11T12:36:09.534Z,100003.09
2022-08-11T12:38:42.985Z,100002.53
2022-08-11T12:41:33.838Z,100002.16
2022-08-11T12:44:27.969Z,100001.34
2022-08-11T12:47:17.684Z,100004.31
2022-08-11T12:50:20.893Z,99996.28
2022-08-11T12:53:01.299Z,100001.94
2022-08-11T12:56:03.795Z,99996.56
2022-08-11T12:58:52.662Z,99993.53
2022-08-11T13:01:47.058Z,99997.59
2022-08-11T13:04:38.527Z,99996.09
2022-08-11T13:07:20.281Z,99989.56
2022-08-11T13:10:01.707Z,99984.81
2022-08-11T13:12:52.836Z,99988.56
2022-08-11T13:15:23.193Z,99992.50
2022-08-11T13:18:05.618Z,99988.44
2022-08-11T13:20:44.936Z,99988.75
2022-08-11T13:23:23.954Z,99972.22
2022-08-11T13:26:08.130Z,99979.22
2022-08-11T13:28:47.922Z,99974.78
2022-08-11T13:31:25.309Z,99969.03
2022-08-11T13:34:08.896Z,99966.38
2022-08-11T13:36:43.125Z,99960.31
2022-08-11T13:39:18.049Z,99965.34
2022-08-11T13:41:53.272Z,99959.88
2022-08-11T13:44:32.151Z,99958.25
2022-08-11T13:47:09.894Z,99960.00
2022-08-11T13:49:50.207Z,99955.38
2022-08-11T13:52:31.102Z,99952.22
2022-08-11T13:55:45.156Z,99953.66
2022-08-11T13:58:19.784Z,99952.84
2022-08-11T14:01:51.408Z,99945.19
2022-08-11T14:04:30.516Z,99948.44
2022-08-11T14:07:07.727Z,99944.25
2022-08-11T14:09:48.023Z,99939.69
2022-08-11T14:12:52.346Z,99939.50
2022-08-11T14:15:56.989Z,99930.31
2022-08-11T14:18:37.388Z,99936.72
2022-08-11T14:21:31.483Z,99925.00
2022-08-11T14:24:03.889Z,99928.22
2022-08-11T14:26:39.130Z,99929.78
2022-08-11T14:31:57.889Z,99928.06
2022-08-11T14:34:34.567Z,99926.06
2022-08-11T14:37:12.006Z,99922.03
2022-08-11T14:39:56.381Z,99928.31
2022-08-11T14:42:52.831Z,99925.06
2022-08-11T14:45:57.581Z,99922.63
2022-08-11T14:48:32.393Z,99929.44
2022-08-11T14:51:11.146Z,99926.47
2022-08-11T14:54:06.028Z,99925.75
2022-08-11T14:56:44.085Z,99921.91
2022-08-11T14:59:21.525Z,99917.72
2022-08-11T15:02:14.426Z,99921.31
2022-08-11T15:04:51.854Z,99923.13
2022-08-11T15:07:32.731Z,99931.16
2022-08-11T15:10:16.286Z,99923.97
2022-08-11T15:12:51.842Z,99930.03
2022-08-11T15:15:46.377Z,99936.19
2022-08-11T15:18:21.037Z,99938.47
2022-08-11T15:21:15.536Z,99937.03
2022-08-11T15:24:00.929Z,99938.31
2022-08-11T15:27:05.940Z,99931.13
2022-08-11T15:29:54.703Z,99935.88
2022-08-11T15:32:43.769Z,99927.88
2022-08-11T15:35:39.503Z,99931.63
2022-08-11T15:38:25.923Z,99925.09
2022-08-11T15:41:17.815Z,99923.44
2022-08-11T15:44:17.710Z,99923.13
2022-08-11T15:46:55.407Z,99929.97
2022-08-11T15:50:11.057Z,99918.06
2022-08-11T15:52:51.011Z,99917.41
2022-08-11T15:55:27.255Z,99917.91
2022-08-11T15:58:20.710Z,99914.81
2022-08-11T16:01:09.591Z,99918.34
2022-08-11T16:04:08.137Z,99915.19
2022-08-11T16:06:50.949Z,99915.69
2022-08-11T16:09:46.876Z,99916.00
2022-08-11T16:12:23.191Z,99914.19
2022-08-11T16:15:19.994Z,99906.66
2022-08-11T16:18:09.704Z,99904.97
2022-08-11T16:20:46.291Z,99906.25
2022-08-11T16:23:28.439Z,99901.84
2022-08-11T16:27:11.775Z,99910.00
2022-08-11T16:29:07.042Z,99908.75
2022-08-11T16:31:43.789Z,99912.28
2022-08-11T16:34:40.676Z,99903.97
2022-08-11T16:37:28.816Z,99918.94
2022-08-11T16:40:14.617Z,99913.47
2022-08-11T16:43:10.095Z,99929.53
2022-08-11T16:46:06.522Z,99937.13
2022-08-11T16:48:38.839Z,99945.38
2022-08-11T16:51:18.010Z,99947.81
2022-08-11T16:54:03.722Z,99962.03
2022-08-11T16:56:46.095Z,99944.03
2022-08-11T16:59:24.995Z,99957.91
2022-08-11T17:02:00.219Z,99964.34
2022-08-11T17:05:07.687Z,99961.25
2022-08-11T17:08:02.821Z,99958.53
2022-08-11T17:11:06.622Z,99961.06
2022-08-11T17:13:53.511Z,99947.38
2022-08-11T17:16:45.936Z,99952.22
2022-08-11T17:20:42.361Z,99956.66
2022-08-11T17:22:35.332Z,99955.25
2022-08-11T17:25:14.919Z,99960.50
2022-08-11T17:27:56.983Z,99960.84
2022-08-11T17:30:54.550Z,99955.63
2022-08-11T17:33:43.946Z,99963.88
2022-08-11T17:36:24.228Z,99961.06
2022-08-11T17:39:19.838Z,99958.19
2022-08-11T17:42:13.379Z,99954.72
2022-08-11T17:45:07.936Z,99956.38
2022-08-11T17:48:00.115Z,99952.97
2022-08-11T17:50:41.669Z,99954.91
2022-08-11T17:53:31.540Z,99959.06
2022-08-11T17:56:21.408Z,99959.56
2022-08-11T17:59:11.865Z,99964.41
2022-08-11T18:01:54.873Z,99962.25
2022-08-11T18:04:32.722Z,99961.78
2022-08-11T18:07:23.417Z,99968.03
2022-08-11T18:10:17.329Z,99968.09
2022-08-11T18:13:09.933Z,99966.41
2022-08-11T18:16:04.419Z,99972.34
2022-08-11T18:19:03.365Z,99971.09
2022-08-11T18:22:13.064Z,99968.69
2022-08-11T18:25:08.832Z,99981.44
2022-08-11T18:28:01.755Z,99981.81
2022-08-11T18:31:04.035Z,99980.78
2022-08-11T18:34:07.878Z,99988.41
2022-08-11T18:37:01.138Z,99984.72
2022-08-11T18:39:56.216Z,99984.50
2022-08-11T18:42:46.404Z,99993.06
2022-08-11T18:45:45.580Z,99990.06
2022-08-11T18:48:40.580Z,99987.28
2022-08-11T18:51:36.959Z,99997.75
2022-08-11T18:54:28.945Z,99995.63
2022-08-11T18:57:20.954Z,100002.81
2022-08-11T19:00:07.577Z,99996.53
2022-08-11T19:02:59.366Z,100001.44
2022-08-11T19:06:32.467Z,99996.56
2022-08-11T19:09:20.653Z,99996.00
2022-08-11T19:12:16.087Z,100005.44
2022-08-11T19:15:08.523Z,99998.34
2022-08-11T19:17:55.105Z,100004.94
2022-08-11T19:20:47.846Z,99999.44
2022-08-11T19:23:40.916Z,100004.41
2022-08-11T19:26:39.559Z,99993.97
2022-08-11T19:30:08.018Z,100000.84
2022-08-11T19:32:47.887Z,99987.16
2022-08-11T19:35:35.846Z,99995.97
2022-08-11T19:38:27.455Z,99985.81
2022-08-11T19:41:56.329Z,99986.66
2022-08-11T19:44:42.317Z,99981.19
2022-08-11T19:47:32.888Z,99976.81
2022-08-11T19:50:26.574Z,99974.63
2022-08-11T19:53:17.144Z,99975.16
2022-08-11T19:56:09.679Z,99980.94
2022-08-11T19:59:01.270Z,99979.84
2022-08-11T20:02:01.354Z,99983.13
2022-08-11T20:05:08.392Z,99987.00
2022-08-11T20:07:56.387Z,99985.31
2022-08-11T20:10:51.090Z,99996.28
2022-08-11T20:13:45.810Z,99993.53
2022-08-11T20:16:35.261Z,99995.19
2022-08-11T20:19:55.738Z,99992.97
2022-08-11T20:22:41.447Z,99990.78
2022-08-11T20:25:33.066Z,99993.50
2022-08-11T20:28:24.930Z,99985.25
2022-08-11T20:31:15.528Z,99995.38
2022-08-11T20:34:08.987Z,99992.81
2022-08-11T20:36:58.201Z,99993.91
2022-08-11T20:39:53.069Z,100000.41
2022-08-11T20:42:44.656Z,100000.13
2022-08-11T20:45:33.929Z,100004.31
2022-08-11T20:48:27.460Z,100012.56
2022-08-11T20:51:20.174Z,100007.94
2022-08-11T20:54:14.236Z,100007.84
2022-08-11T20:57:03.309Z,100011.91
2022-08-11T21:00:06.448Z,100010.69
2022-08-11T21:02:56.719Z,100008.69
2022-08-11T21:06:10.237Z,100007.41
2022-08-11T21:09:07.320Z,100014.75
2022-08-11T21:11:58.414Z,100023.13
2022-08-11T21:14:54.660Z,100019.56
2022-08-11T21:18:00.543Z,100027.31
2022-08-11T21:20:50.455Z,100032.44
2022-08-11T21:23:43.146Z,100028.94
2022-08-11T21:26:34.717Z,100022.09
2022-08-11T21:29:25.808Z,100024.19
2022-08-11T21:32:11.739Z,100034.31
2022-08-11T21:35:08.875Z,100031.53
2022-08-11T21:37:59.427Z,100035.25
2022-08-11T21:40:51.170Z,100039.66
2022-08-11T21:43:46.351Z,100044.09
2022-08-11T21:46:37.788Z,100039.25
2022-08-11T21:49:30.466Z,100042.97
2022-08-11T21:52:21.428Z,100040.66
2022-08-11T21:55:13.544Z,100048.91
2022-08-11T21:58:07.831Z,100045.88
2022-08-11T22:00:56.801Z,100040.31
2022-08-11T22:03:50.752Z,100044.59
2022-08-11T22:06:39.853Z,100044.06
2022-08-11T22:09:28.527Z,100033.06
2022-08-11T22:12:34.185Z,100041.97
2022-08-11T22:15:30.669Z,100031.38
2022-08-11T22:18:24.696Z,100031.53
2022-08-11T22:22:01.486Z,100033.22
2022-08-11T22:24:35.051Z,100028.13
2022-08-11T22:27:28.527Z,100036.31
2022-08-11T22:30:19.592Z,100031.94
2022-08-11T22:33:15.197Z,100026.81
2022-08-11T22:36:09.932Z,100027.59
2022-08-11T22:39:07.385Z,100022.34
2022-08-11T22:41:58.742Z,100031.44
2022-08-11T22:44:56.662Z,100029.75
2022-08-11T22:47:47.338Z,100027.41
2022-08-11T22:50:33.395Z,100025.66
2022-08-11T22:53:58.453Z,100017.69
2022-08-11T22:56:45.748Z,100016.53
2022-08-11T22:59:37.497Z,100011.44
2022-08-11T23:02:29.998Z,100004.75
2022-08-11T23:05:20.046Z,100012.72
2022-08-11T23:08:11.045Z,100003.69
2022-08-11T23:11:02.958Z,99995.88
2022-08-11T23:13:53.718Z,100003.63
2022-08-11T23:16:45.314Z,99998.41
2022-08-11T23:20:06.636Z,99994.53
2022-08-11T23:22:50.783Z,100001.19
2022-08-11T23:25:44.020Z,99995.59
2022-08-11T23:28:35.478Z,99993.84
2022-08-11T23:31:24.978Z,100000.81
2022-08-11T23:34:43.494Z,99993.06
2022-08-11T23:37:26.743Z,99991.91
2022-08-11T23:40:16.202Z,99997.81
2022-08-11T23:43:16.296Z,99999.69
2022-08-11T23:46:04.790Z,99987.72
2022-08-11T23:48:56.751Z,99986.56
2022-08-11T23:51:47.351Z,99996.28
2022-08-11T23:54:37.438Z,99992.44
2022-08-11T23:57:33.456Z,99990.06
